Time;durP1;ratioP1;P1;durP2;ratioP2;P2;SDS_P1;SDS_P2;PMS_P1;PMS_P2;Temp;Humidity;BMP_temperature;BMP_pressure;BME280_temperature;BME280_humidity;BME280_pressure;Samples;Min_cycle;Max_cycle;Signal;HPM_P1;HPM_P2
2022/04/05 00:00:14;;;;;;;6.78;6.03;;;;;;;28.48;60.84;101158.22;5017429;28;68296;-38
2022/04/05 00:02:45;;;;;;;11.90;7.28;;;;;;;28.35;61.43;101128.44;5017605;28;66765;-38
2022/04/05 00:05:16;;;;;;;7.68;6.88;;;;;;;28.64;61.54;101167.03;5016391;28;70081;-38
2022/04/05 00:07:46;;;;;;;14.70;7.13;;;;;;;28.34;61.59;101129.47;5016403;28;66192;-37
2022/04/05 00:10:17;;;;;;;7.43;6.22;;;;;;;28.66;61.26;101173.06;5016962;28;70746;-37
2022/04/05 00:12:48;;;;;;;13.13;6.50;;;;;;;28.61;62.25;101165.59;5016072;28;66163;-37
2022/04/05 00:15:19;;;;;;;13.07;7.55;;;;;;;28.77;62.67;101180.63;4998652;28;68123;-36
2022/04/05 00:17:49;;;;;;;12.85;7.38;;;;;;;28.75;61.78;101174.56;5017544;28;65397;-36
2022/04/05 00:20:20;;;;;;;13.52;7.00;;;;;;;28.71;62.43;101151.72;5026410;28;70404;-38
2022/04/05 00:22:51;;;;;;;10.40;6.05;;;;;;;28.91;62.67;101187.75;5020901;28;66780;-37
2022/04/05 00:25:22;;;;;;;7.85;7.05;;;;;;;28.84;62.81;101173.41;5021135;28;69838;-36
2022/04/05 00:27:52;;;;;;;7.57;6.55;;;;;;;28.95;62.73;101189.03;5029755;28;66388;-36
2022/04/05 00:30:23;;;;;;;7.28;6.15;;;;;;;28.88;62.91;101193.56;5019571;28;70617;-35
2022/04/05 00:32:55;;;;;;;;;;;;;;;28.60;64.25;101199.00;5018598;28;66462;-36
2022/04/05 00:35:25;;;;;;;6.63;6.00;;;;;;;29.05;59.76;101201.38;5018529;28;69895;-35
2022/04/05 00:37:56;;;;;;;12.93;6.05;;;;;;;29.15;59.46;101208.06;5020672;28;66712;-35
2022/04/05 00:40:28;;;;;;;7.00;5.55;;;;;;;29.24;58.97;101203.31;5018979;28;70180;-35
2022/04/05 00:43:00;;;;;;;5.38;4.80;;;;;;;29.31;58.37;101217.72;5020976;28;67276;-35
2022/04/05 00:45:31;;;;;;;7.95;5.30;;;;;;;29.29;58.23;101206.25;5011897;28;70039;-35
2022/04/05 00:48:06;;;;;;;5.78;5.28;;;;;;;29.38;58.04;101210.44;5000111;28;65506;-44
2022/04/05 00:50:38;;;;;;;5.38;4.97;;;;;;;28.66;57.46;101078.59;4999153;28;68023;-36
2022/04/05 00:53:09;;;;;;;6.45;5.38;;;;;;;29.47;58.08;101215.66;5001026;28;65395;-35
2022/04/05 00:55:41;;;;;;;6.35;5.78;;;;;;;29.54;57.49;101227.34;5001322;28;68302;-35
2022/04/05 00:58:14;;;;;;;6.18;5.53;;;;;;;29.02;57.03;101143.16;5019312;28;66576;-36
2022/04/05 01:00:48;;;;;;;5.40;5.00;;;;;;;29.28;57.30;101180.28;5019861;28;70575;-36
2022/04/05 01:03:20;;;;;;;7.85;5.43;;;;;;;29.60;57.03;101231.94;5019257;28;65640;-35
2022/04/05 01:05:53;;;;;;;5.78;5.25;;;;;;;29.68;57.28;101245.31;5021214;28;70397;-36
2022/04/05 01:08:24;;;;;;;5.80;5.18;;;;;;;29.71;57.09;101244.06;5019495;28;66068;-35
2022/04/05 01:10:56;;;;;;;5.57;4.93;;;;;;;29.66;56.51;101235.72;5020591;28;69462;-35
2022/04/05 01:13:28;;;;;;;5.68;5.15;;;;;;;29.76;56.69;101242.41;5020582;28;65197;-35
2022/04/05 01:15:58;;;;;;;;;;;;;;;29.43;57.99;101242.28;5019953;28;69912;-35
2022/04/05 01:18:29;;;;;;;5.40;4.95;;;;;;;29.76;56.36;101237.00;5020829;28;67221;-35
2022/04/05 01:21:01;;;;;;;5.07;4.60;;;;;;;29.81;56.20;101230.97;5020870;28;69820;-35
2022/04/05 01:23:32;;;;;;;6.30;4.73;;;;;;;29.77;56.63;101227.03;5019834;28;65961;-36
2022/04/05 01:26:11;;;;;;;5.45;5.00;;;;;;;29.90;55.92;101247.88;5014942;28;70958;-35
2022/04/05 01:28:41;;;;;;;8.40;5.50;;;;;;;29.94;55.80;101257.22;5030153;28;66354;-35
2022/04/05 01:31:12;;;;;;;10.77;4.97;;;;;;;29.96;56.12;101258.69;5020151;28;70646;-35
2022/04/05 01:33:43;;;;;;;7.30;4.82;;;;;;;29.99;55.64;101269.09;5040720;28;65592;-35
2022/04/05 01:36:23;;;;;;;5.32;4.93;;;;;;;29.95;55.71;101261.59;5039546;28;69909;-35
2022/04/05 01:38:54;;;;;;;5.50;5.10;;;;;;;29.94;56.24;101257.22;5039935;28;66614;-35
2022/04/05 01:41:25;;;;;;;6.65;5.07;;;;;;;29.95;55.76;101258.88;5040537;28;70130;-35
2022/04/05 01:43:55;;;;;;;5.40;5.00;;;;;;;30.08;55.74;101264.31;5039682;28;66884;-35
2022/04/05 01:46:26;;;;;;;10.02;5.32;;;;;;;30.11;55.32;101272.03;5039541;28;70593;-35
2022/04/05 01:48:57;;;;;;;6.28;5.13;;;;;;;30.14;55.58;101274.31;5006251;28;66850;-35
2022/04/05 01:51:27;;;;;;;5.32;4.82;;;;;;;30.18;55.20;101283.69;5004209;28;70867;-35
2022/04/05 01:54:02;;;;;;;10.43;5.15;;;;;;;30.18;55.58;101286.41;4999465;28;66092;-35
2022/04/05 01:56:40;;;;;;;5.95;5.53;;;;;;;30.13;55.00;101275.34;5007385;28;69784;-35
2022/04/05 01:59:12;;;;;;;5.45;4.95;;;;;;;30.06;54.95;101263.69;5010679;28;65720;-34
2022/04/05 02:01:44;;;;;;;5.60;5.18;;;;;;;30.28;54.66;101289.59;5021224;28;70178;-35
2022/04/05 02:04:16;;;;;;;6.33;4.83;;;;;;;30.32;54.70;101291.88;5016607;28;65407;-35
2022/04/05 02:06:50;;;;;;;8.77;5.28;;;;;;;30.35;55.15;101299.56;4996301;28;70348;-35
2022/04/05 02:09:21;;;;;;;6.05;4.65;;;;;;;30.36;54.85;101295.81;5014689;28;65919;-35
2022/04/05 02:11:55;;;;;;;5.63;5.20;;;;;;;30.40;54.58;101297.09;5002446;28;69586;-35
2022/04/05 02:14:44;;;;;;;5.53;5.03;;;;;;;30.02;54.43;101238.09;5015518;28;66659;-35
2022/04/05 02:17:21;;;;;;;5.75;5.20;;;;;;;30.46;54.31;101312.50;5015463;28;70257;-35
2022/04/05 02:19:56;;;;;;;5.45;4.97;;;;;;;30.46;54.37;101307.06;4995236;28;64202;-35
2022/04/05 02:22:28;;;;;;;5.88;5.38;;;;;;;30.51;54.62;101315.41;5015839;28;70639;-35
2022/04/05 02:25:04;;;;;;;5.97;5.40;;;;;;;30.43;54.63;101294.78;5013298;28;66392;-35
2022/04/05 02:27:41;;;;;;;7.60;4.90;;;;;;;30.58;54.35;101300.00;4995279;28;70212;-36
2022/04/05 02:30:18;;;;;;;7.10;4.85;;;;;;;30.60;54.41;101308.75;5015657;28;65517;-35
2022/04/05 02:32:54;;;;;;;7.38;5.15;;;;;;;30.57;54.42;101303.75;5018025;28;70097;-36
2022/04/05 02:35:27;;;;;;;5.72;5.22;;;;;;;30.64;53.78;101299.16;5001097;28;66315;-36
2022/04/05 02:38:00;;;;;;;6.97;5.68;;;;;;;30.68;53.74;101305.81;4998216;28;69137;-35
2022/04/05 02:40:35;;;;;;;5.80;5.10;;;;;;;30.70;53.78;101309.16;5008652;28;66328;-35
2022/04/05 02:43:06;;;;;;;5.82;5.32;;;;;;;30.70;54.01;101303.75;5005758;28;70620;-35
2022/04/05 02:45:39;;;;;;;8.40;5.22;;;;;;;30.75;53.63;101297.69;4989383;28;66174;-35
2022/04/05 02:48:11;;;;;;;5.70;4.82;;;;;;;30.79;53.88;101300.81;5002025;28;69342;-35
2022/04/05 02:50:43;;;;;;;;;;;;;;;30.48;54.41;101289.59;5019402;28;65936;-35
2022/04/05 02:53:14;;;;;;;5.03;4.60;;;;;;;30.80;53.50;101289.81;5020307;28;70482;-36
2022/04/05 02:55:46;;;;;;;5.22;4.72;;;;;;;30.81;53.44;101277.09;5002393;28;65918;-35
2022/04/05 02:58:17;;;;;;;5.33;4.93;;;;;;;30.90;53.63;101286.69;5000710;28;70636;-35
2022/04/05 03:00:49;;;;;;;5.15;4.75;;;;;;;30.92;53.29;101273.72;4997210;28;66884;-35
2022/04/05 03:03:20;;;;;;;5.30;4.80;;;;;;;30.88;52.95;101267.91;4984288;28;69005;-35
2022/04/05 03:05:55;;;;;;;5.38;4.88;;;;;;;30.99;53.21;101274.56;4982346;28;66487;-35
2022/04/05 03:08:25;;;;;;;7.70;5.07;;;;;;;31.03;52.75;101270.38;5001328;28;69852;-35
2022/04/05 03:11:01;;;;;;;7.25;4.60;;;;;;;30.98;52.95;101262.06;4981672;28;65865;-35
2022/04/05 03:13:33;;;;;;;6.05;4.80;;;;;;;31.08;52.94;101276.00;4994814;28;69422;-35
2022/04/05 03:16:04;;;;;;;;;;;;;;;30.78;53.73;101283.72;4983245;28;66886;-36
2022/04/05 03:18:36;;;;;;;4.25;3.95;;;;;;;31.07;52.66;101277.06;4985528;28;68951;-35
2022/04/05 03:21:08;;;;;;;4.70;4.33;;;;;;;31.12;52.88;101274.53;4969421;28;66350;-35
2022/04/05 03:23:40;;;;;;;5.35;4.72;;;;;;;31.16;52.78;101275.75;4982356;28;71478;-35
2022/04/05 03:26:11;;;;;;;5.25;4.75;;;;;;;31.21;52.94;101277.03;5000354;28;66345;-34
2022/04/05 03:28:42;;;;;;;6.30;4.50;;;;;;;31.19;52.35;101265.56;4981892;28;69215;-35
2022/04/05 03:31:14;;;;;;;5.55;5.07;;;;;;;31.09;52.63;101253.28;4947809;28;65226;-34
2022/04/05 03:33:49;;;;;;;5.55;5.05;;;;;;;31.28;52.41;101266.97;4963121;28;70177;-34
2022/04/05 03:36:30;;;;;;;8.13;5.57;;;;;;;31.25;52.57;101265.53;4973981;28;65278;-34
2022/04/05 03:39:01;;;;;;;6.43;5.07;;;;;;;31.29;52.47;101260.53;4962035;28;70357;-34
2022/04/05 03:41:32;;;;;;;6.38;5.15;;;;;;;31.31;52.10;101255.69;4981721;28;66073;-35
2022/04/05 03:44:03;;;;;;;8.20;4.97;;;;;;;31.37;52.54;101250.31;4981281;28;68974;-36
2022/04/05 03:46:38;;;;;;;5.38;4.85;;;;;;;31.39;52.34;101242.75;4981630;28;66397;-36
2022/04/05 03:49:09;;;;;;;8.70;5.55;;;;;;;31.35;52.42;101227.97;4995931;28;69714;-35
2022/04/05 03:51:44;;;;;;;11.70;5.65;;;;;;;31.44;52.46;101233.16;4992827;28;66248;-35
2022/04/05 03:54:14;;;;;;;7.95;5.32;;;;;;;31.46;52.40;101226.47;4999799;28;70064;-35
2022/04/05 03:56:46;;;;;;;6.68;5.22;;;;;;;31.47;52.34;101220.00;4995792;28;66578;-35
2022/04/05 03:59:19;;;;;;;7.25;4.90;;;;;;;31.51;52.10;101215.81;4998833;28;69106;-35
2022/04/05 04:01:50;;;;;;;8.60;4.75;;;;;;;31.53;52.03;101216.41;4979645;28;66827;-34
2022/04/05 04:04:24;;;;;;;6.75;4.85;;;;;;;31.45;51.98;101197.69;4982844;28;69139;-34
2022/04/05 04:06:55;;;;;;;6.47;5.00;;;;;;;31.59;52.00;101218.28;4980868;28;65470;-34
2022/04/05 04:09:27;;;;;;;5.18;4.60;;;;;;;31.50;51.99;101188.91;4983195;28;70938;-34
2022/04/05 04:11:59;;;;;;;10.40;5.50;;;;;;;31.60;51.88;101206.38;4965358;28;66176;-35
2022/04/05 04:14:33;;;;;;;9.77;5.40;;;;;;;31.52;52.21;101182.22;4984265;28;70593;-36
2022/04/05 04:17:13;;;;;;;14.40;5.13;;;;;;;31.66;51.87;101203.84;4983762;28;66598;-35
2022/04/05 04:19:45;;;;;;;11.13;5.22;;;;;;;31.68;51.90;101196.31;4980815;28;69716;-34
2022/04/05 04:22:16;;;;;;;9.80;5.15;;;;;;;31.65;51.78;101186.75;4998105;28;64991;-34
2022/04/05 04:24:48;;;;;;;5.40;4.87;;;;;;;31.72;51.51;101194.84;4980573;28;69606;-36
2022/04/05 04:27:19;;;;;;;6.82;5.10;;;;;;;31.67;51.57;101178.38;5004416;28;65770;-36
2022/04/05 04:29:50;;;;;;;6.35;4.82;;;;;;;31.77;51.54;101174.16;4999927;28;70314;-35
2022/04/05 04:32:21;;;;;;;8.40;4.97;;;;;;;31.68;51.74;101163.75;5019839;28;65653;-34
2022/04/05 04:34:51;;;;;;;7.13;4.82;;;;;;;31.82;51.78;101165.34;5020042;28;70167;-34
2022/04/05 04:37:23;;;;;;;5.50;4.90;;;;;;;31.79;51.32;101160.38;5021002;28;65653;-34
2022/04/05 04:39:53;;;;;;;6.25;5.00;;;;;;;31.75;51.46;101149.13;5021187;28;69385;-35
2022/04/05 04:42:25;;;;;;;5.15;4.65;;;;;;;31.88;51.49;101164.47;5020902;28;66278;-35
2022/04/05 04:44:55;;;;;;;8.65;5.63;;;;;;;31.83;51.44;101148.84;5021617;28;69549;-35
2022/04/05 04:47:27;;;;;;;8.07;5.35;;;;;;;31.92;51.40;101154.03;5021169;28;67409;-35
2022/04/05 04:49:57;;;;;;;10.40;5.65;;;;;;;31.95;51.08;101143.56;5017451;28;70321;-34
2022/04/05 04:52:28;;;;;;;6.57;5.15;;;;;;;31.91;51.22;101139.63;4999443;28;64226;-35
2022/04/05 04:54:59;;;;;;;5.50;4.90;;;;;;;31.99;51.25;101133.94;5001382;28;70374;-35
2022/04/05 04:57:30;;;;;;;5.95;5.43;;;;;;;31.99;51.20;101133.94;5014314;28;65546;-35
2022/04/05 05:00:01;;;;;;;11.07;4.95;;;;;;;31.95;51.20;101116.44;5021374;28;71169;-34
2022/04/05 05:02:42;;;;;;;5.28;4.78;;;;;;;31.96;51.05;101112.69;5012950;28;66725;-35
2022/04/05 05:05:17;;;;;;;5.85;5.28;;;;;;;31.65;50.97;101050.31;5019199;28;70324;-35
2022/04/05 05:07:49;;;;;;;5.55;5.10;;;;;;;31.99;51.40;101104.09;5021407;28;66284;-35
2022/04/05 05:10:22;;;;;;;7.18;5.38;;;;;;;32.09;51.27;101113.59;5020138;28;70168;-35
2022/04/05 05:12:53;;;;;;;5.85;5.30;;;;;;;32.01;51.49;101095.72;5021500;28;66098;-35
2022/04/05 05:15:24;;;;;;;5.63;5.20;;;;;;;32.09;51.18;101100.84;5019453;28;69992;-35
2022/04/05 05:17:55;;;;;;;5.82;5.32;;;;;;;32.11;51.41;101095.22;5015261;28;66255;-35
2022/04/05 05:20:26;;;;;;;5.88;4.70;;;;;;;32.09;51.25;101081.03;5019824;28;70007;-34
2022/04/05 05:22:58;;;;;;;5.97;5.47;;;;;;;32.08;51.08;101079.38;4999773;28;65950;-35
2022/04/05 05:25:45;;;;;;;7.05;5.13;;;;;;;32.13;51.18;101082.25;5015042;28;70497;-35
2022/04/05 05:28:16;;;;;;;10.77;5.22;;;;;;;32.13;51.24;101074.13;5000275;28;66137;-35
2022/04/05 05:30:47;;;;;;;5.47;4.97;;;;;;;32.04;50.99;101050.00;4999239;28;70440;-35
2022/04/05 05:33:18;;;;;;;5.80;5.33;;;;;;;32.16;51.32;101058.22;4969909;28;66613;-35
2022/04/05 05:35:50;;;;;;;5.00;4.70;;;;;;;32.16;51.30;101051.97;5020873;28;69656;-37
2022/04/05 05:38:21;;;;;;;5.50;5.07;;;;;;;32.15;51.14;101045.72;5020217;28;66684;-35
2022/04/05 05:40:51;;;;;;;5.70;5.30;;;;;;;32.20;51.11;101053.97;5020088;28;70382;-35
2022/04/05 05:43:25;;;;;;;5.13;4.53;;;;;;;32.25;51.06;101045.16;5020568;28;65668;-36
2022/04/05 05:45:56;;;;;;;5.85;5.35;;;;;;;32.23;50.83;101033.69;4999555;28;69401;-36
2022/04/05 05:48:27;;;;;;;6.57;5.13;;;;;;;32.20;51.07;101017.88;5020181;28;66314;-36
2022/04/05 05:50:58;;;;;;;5.93;4.78;;;;;;;32.31;50.72;101027.97;5019598;28;70124;-36
2022/04/05 05:53:29;;;;;;;5.68;4.85;;;;;;;32.34;51.07;101024.81;5003358;28;66498;-36
2022/04/05 05:56:00;;;;;;;6.25;5.35;;;;;;;32.37;51.00;101016.19;5018868;28;70576;-36
2022/04/05 05:58:30;;;;;;;5.63;5.13;;;;;;;32.29;50.85;100997.53;4999461;28;66526;-35
2022/04/05 06:01:01;;;;;;;5.90;5.40;;;;;;;32.39;51.02;101003.22;5000586;28;70018;-36
2022/04/05 06:03:32;;;;;;;6.85;5.68;;;;;;;32.42;50.75;100997.34;4975748;28;65750;-35
2022/04/05 06:06:03;;;;;;;9.15;5.18;;;;;;;32.37;51.03;100978.19;4998231;28;70029;-35
2022/04/05 06:08:34;;;;;;;5.45;5.05;;;;;;;32.37;50.58;100966.50;4992973;28;66142;-35
2022/04/05 06:11:07;;;;;;;5.35;4.85;;;;;;;32.49;50.63;100987.28;5000802;28;69673;-35
2022/04/05 06:13:38;;;;;;;6.13;5.53;;;;;;;32.52;50.77;100974.31;5000327;28;66681;-35
2022/04/05 06:16:09;;;;;;;5.28;4.88;;;;;;;32.54;50.75;100974.88;5000807;28;69530;-36
2022/04/05 06:18:40;;;;;;;6.13;5.53;;;;;;;32.46;50.81;100948.91;5000593;28;65036;-35
2022/04/05 06:21:10;;;;;;;9.35;5.80;;;;;;;32.57;50.87;100949.97;5000459;28;70406;-35
2022/04/05 06:23:41;;;;;;;6.13;5.35;;;;;;;32.55;51.16;100935.81;5000302;28;66563;-34
2022/04/05 06:26:12;;;;;;;5.68;5.05;;;;;;;32.61;50.62;100933.00;4999724;28;70402;-36
2022/04/05 06:28:43;;;;;;;5.97;5.47;;;;;;;32.62;50.68;100931.09;4979202;28;65665;-35
2022/04/05 06:31:14;;;;;;;7.55;5.40;;;;;;;32.41;50.77;100892.53;4997253;28;70377;-34
2022/04/05 06:33:45;;;;;;;6.50;5.70;;;;;;;32.66;50.55;100932.31;4999040;28;66384;-35
2022/04/05 06:36:15;;;;;;;9.13;6.25;;;;;;;32.66;50.45;100921.47;4999864;28;70372;-34
2022/04/05 06:38:58;;;;;;;16.88;6.30;;;;;;;32.70;50.67;100917.19;4999232;28;65678;-34
2022/04/05 06:41:29;;;;;;;7.68;5.78;;;;;;;32.71;50.61;100916.16;4998424;28;70359;-34
2022/04/05 06:44:00;;;;;;;8.23;5.73;;;;;;;32.69;50.57;100904.69;4979107;28;66158;-34
2022/04/05 06:46:32;;;;;;;10.32;6.18;;;;;;;32.67;50.89;100893.22;4978578;28;69527;-34
2022/04/05 06:49:03;;;;;;;7.37;5.87;;;;;;;32.78;50.57;100903.28;4995754;28;66154;-34
2022/04/05 06:51:34;;;;;;;22.50;6.10;;;;;;;32.80;50.52;100890.31;4991885;28;70134;-35
2022/04/05 06:54:05;;;;;;;7.45;5.45;;;;;;;32.84;50.69;100885.22;4980907;28;65608;-34
2022/04/05 06:56:36;;;;;;;6.72;6.07;;;;;;;32.74;50.49;100874.13;5006612;28;69518;-34
2022/04/05 06:59:07;;;;;;;11.57;5.53;;;;;;;32.87;50.60;100885.56;5019994;28;66147;-35
2022/04/05 07:01:37;;;;;;;8.85;5.75;;;;;;;32.89;50.51;100874.50;5018205;28;69656;-35
2022/04/05 07:04:08;;;;;;;9.48;5.32;;;;;;;32.92;50.58;100874.84;5019608;28;66279;-35
2022/04/05 07:06:54;;;;;;;12.98;5.13;;;;;;;32.95;50.48;100870.81;5017209;28;69212;-35
2022/04/05 07:09:25;;;;;;;9.40;5.25;;;;;;;32.92;50.47;100858.53;5019232;28;65800;-34
2022/04/05 07:11:55;;;;;;;6.35;5.75;;;;;;;32.71;50.17;100812.94;5002492;28;69973;-35
2022/04/05 07:14:26;;;;;;;6.95;5.40;;;;;;;33.02;50.21;100854.47;5017048;28;66515;-35
2022/04/05 07:16:57;;;;;;;5.47;4.83;;;;;;;33.07;50.32;100854.56;5001988;28;70028;-34
2022/04/05 07:19:28;;;;;;;10.57;5.20;;;;;;;33.06;50.22;100847.47;5019046;28;66668;-35
2022/04/05 07:21:59;;;;;;;5.60;5.10;;;;;;;32.81;50.09;100799.59;5017740;28;69933;-36
2022/04/05 07:24:30;;;;;;;6.97;5.63;;;;;;;33.15;50.20;100848.78;5018942;28;66726;-36
2022/04/05 07:27:01;;;;;;;5.93;4.90;;;;;;;33.08;50.38;100837.22;5020514;28;69953;-35
2022/04/05 07:29:38;;;;;;;10.52;5.63;;;;;;;33.15;49.66;100843.34;5013745;28;66056;-35
2022/04/05 07:32:15;;;;;;;8.82;6.32;;;;;;;33.10;50.22;100825.03;5022101;28;69961;-35
2022/04/05 07:34:56;;;;;;;6.28;5.57;;;;;;;33.15;50.42;100827.03;5021620;28;67036;-35
2022/04/05 07:37:37;;;;;;;7.38;5.00;;;;;;;33.19;50.23;100835.56;5005812;28;70207;-36
2022/04/05 07:40:13;;;;;;;8.68;5.38;;;;;;;33.21;50.23;100836.13;5000839;28;65870;-35
2022/04/05 07:42:54;;;;;;;7.97;5.93;;;;;;;33.21;50.12;100833.41;5000451;28;70417;-35
2022/04/05 07:45:34;;;;;;;6.97;5.80;;;;;;;33.22;50.06;100830.47;5013194;28;65802;-34
2022/04/05 07:48:05;;;;;;;8.35;5.72;;;;;;;33.23;50.21;100806.81;5022326;28;70259;-35
2022/04/05 07:50:36;;;;;;;8.48;6.15;;;;;;;33.21;50.21;100798.91;5023102;28;66135;-35
2022/04/05 07:53:12;;;;;;;8.10;5.55;;;;;;;33.23;50.03;100806.81;5002699;28;69897;-34
2022/04/05 07:55:44;;;;;;;10.50;5.70;;;;;;;33.32;50.24;100817.09;5022632;28;65170;-35
2022/04/05 07:58:15;;;;;;;6.70;5.95;;;;;;;33.33;50.01;100816.03;5001813;28;70149;-35
2022/04/05 08:00:46;;;;;;;9.20;5.77;;;;;;;33.37;49.68;100813.66;4997277;28;65749;-35
2022/04/05 08:03:34;;;;;;;7.38;5.78;;;;;;;33.41;49.82;100805.84;4983898;28;69914;-36
2022/04/05 08:06:06;;;;;;;6.10;5.50;;;;;;;33.37;49.96;100803.59;4965395;28;66224;-36
2022/04/05 08:08:36;;;;;;;7.83;5.50;;;;;;;33.40;49.91;100802.28;4965541;28;69196;-37
2022/04/05 08:11:28;;;;;;;7.78;5.90;;;;;;;33.41;49.91;100803.97;5002400;28;66668;-34
2022/04/05 08:13:59;;;;;;;13.02;6.00;;;;;;;33.42;49.96;100799.34;4996881;28;70458;-36
2022/04/05 08:16:30;;;;;;;7.88;6.15;;;;;;;33.40;49.74;100798.75;4999579;28;66475;-35
2022/04/05 08:19:04;;;;;;;7.57;6.88;;;;;;;33.42;49.95;100793.91;4980424;28;69190;-35
2022/04/05 08:21:35;;;;;;;9.85;7.30;;;;;;;33.44;49.88;100802.66;4941834;28;65118;-36
2022/04/05 08:24:06;;;;;;;12.05;6.85;;;;;;;33.44;49.69;100800.75;4992401;28;71526;-35
2022/04/05 08:26:38;;;;;;;10.15;7.45;;;;;;;33.43;49.93;100784.66;5000030;28;66247;-35
2022/04/05 08:29:09;;;;;;;8.47;7.10;;;;;;;33.41;49.79;100781.38;5002152;28;70011;-35
2022/04/05 08:31:40;;;;;;;14.05;7.40;;;;;;;33.41;49.79;100789.53;4996078;28;64802;-36
2022/04/05 08:34:14;;;;;;;17.52;8.15;;;;;;;33.47;49.93;100774.97;5000233;28;70275;-36
2022/04/05 08:36:45;;;;;;;8.15;7.40;;;;;;;33.43;50.05;100768.34;5000948;28;66326;-35
2022/04/05 08:39:16;;;;;;;12.00;8.35;;;;;;;33.48;50.08;100776.63;5001956;28;70081;-35
2022/04/05 08:41:48;;;;;;;16.90;8.05;;;;;;;33.49;49.79;100772.81;4980066;28;65773;-36
2022/04/05 08:44:19;;;;;;;45.53;10.70;;;;;;;33.47;50.54;100785.84;4999558;28;69645;-36
2022/04/05 08:46:51;;;;;;;33.60;12.85;;;;;;;33.34;51.37;100771.44;5017914;28;65540;-34
2022/04/05 08:49:22;;;;;;;;;;;;;;;33.25;51.80;100794.66;4998810;28;69245;-34
2022/04/05 08:51:53;;;;;;;29.38;9.93;;;;;;;33.57;51.44;100802.41;5015304;28;66047;-35
2022/04/05 08:54:24;;;;;;;30.70;10.98;;;;;;;33.63;50.97;100801.47;5017482;28;70279;-34
2022/04/05 08:56:55;;;;;;;39.55;12.50;;;;;;;33.64;51.88;100818.59;5012645;28;67200;-35
2022/04/05 08:59:31;;;;;;;36.22;12.20;;;;;;;33.52;52.41;100824.03;5016406;28;69762;-33
2022/04/05 09:02:02;;;;;;;27.88;10.23;;;;;;;33.57;53.25;100841.31;4996717;28;65028;-32
2022/04/05 09:04:37;;;;;;;26.03;9.60;;;;;;;33.57;54.20;100840.47;5012686;28;70026;-33
2022/04/05 09:07:23;;;;;;;17.75;9.27;;;;;;;33.17;55.23;100795.00;5014995;28;65491;-33
2022/04/05 09:10:08;;;;;;;21.90;9.23;;;;;;;33.36;56.14;100848.16;4997189;28;70098;-34
2022/04/05 09:12:45;;;;;;;21.33;10.32;;;;;;;33.12;56.15;100789.44;4997349;28;65842;-34
2022/04/05 09:15:21;;;;;;;23.08;9.95;;;;;;;33.36;56.25;100847.34;5016540;28;69667;-34
2022/04/05 09:17:52;;;;;;;18.75;8.00;;;;;;;33.18;56.44;100855.63;5021441;28;66527;-34
2022/04/05 09:20:24;;;;;;;14.82;7.35;;;;;;;33.18;55.99;100863.78;4999500;28;71457;-34
2022/04/05 09:22:56;;;;;;;11.82;5.60;;;;;;;32.81;56.91;100829.47;5020526;28;65165;-34
2022/04/05 09:25:26;;;;;;;9.73;4.30;;;;;;;32.96;56.52;100844.47;5020098;28;69492;-34
2022/04/05 09:27:59;;;;;;;5.30;4.82;;;;;;;32.92;56.80;100871.31;5020159;28;68062;-34
2022/04/05 09:30:33;;;;;;;5.70;4.38;;;;;;;32.73;56.72;100862.41;5018742;28;69517;-35
2022/04/05 09:33:04;;;;;;;4.32;3.45;;;;;;;32.60;57.54;100882.47;5020922;28;66307;-34
2022/04/05 09:35:43;;;;;;;8.98;4.13;;;;;;;32.49;58.03;100900.38;4987399;28;43154;-35
2022/04/05 09:38:20;;;;;;;6.03;5.38;;;;;;;32.34;58.14;100905.34;5021356;28;66810;-34
2022/04/05 09:40:52;;;;;;;6.70;4.70;;;;;;;32.30;58.42;100920.47;5020680;28;70259;-34
2022/04/05 09:43:32;;;;;;;10.10;3.60;;;;;;;32.22;58.29;100915.34;5021122;28;66601;-35
2022/04/05 09:46:04;;;;;;;13.32;6.13;;;;;;;32.14;60.34;100918.38;5020426;28;70353;-33
2022/04/05 09:48:36;;;;;;;14.48;5.50;;;;;;;32.04;61.37;100914.31;4982665;28;65938;-34
2022/04/05 09:51:16;;;;;;;6.05;4.35;;;;;;;31.87;61.22;100926.78;5006347;28;69601;-34
2022/04/05 09:53:54;;;;;;;7.70;3.92;;;;;;;31.64;61.83;100940.19;5020541;28;66024;-36
2022/04/05 09:56:38;;;;;;;4.55;4.03;;;;;;;31.60;62.25;100951.50;5014622;28;70591;-34
2022/04/05 09:59:19;;;;;;;6.43;5.07;;;;;;;31.87;61.69;100956.63;4999498;28;66591;-34
2022/04/05 10:01:52;;;;;;;10.40;6.13;;;;;;;31.92;61.75;100954.09;4979505;28;69901;-34
2022/04/05 10:04:22;;;;;;;7.50;5.20;;;;;;;31.82;61.49;100929.38;5000219;28;65751;-35
2022/04/05 10:06:53;;;;;;;5.68;4.28;;;;;;;31.99;61.05;100945.91;4999719;28;69850;-34
2022/04/05 10:09:25;;;;;;;6.53;4.07;;;;;;;31.94;61.77;100940.31;4998579;28;66584;-33
2022/04/05 10:11:58;;;;;;;5.53;4.30;;;;;;;31.99;60.83;100949.44;4994976;28;69380;-34
2022/04/05 10:14:29;;;;;;;7.40;4.75;;;;;;;31.62;61.65;100894.31;5014293;28;66085;-34
2022/04/05 10:17:00;;;;;;;5.47;4.25;;;;;;;31.99;61.31;100930.44;5000152;28;70567;-34
2022/04/05 10:19:33;;;;;;;4.83;4.33;;;;;;;31.86;61.64;100911.56;4977977;28;66308;-35
2022/04/05 10:22:05;;;;;;;5.65;4.05;;;;;;;31.88;61.73;100935.78;4995450;28;70386;-34
2022/04/05 10:24:35;;;;;;;5.07;4.57;;;;;;;31.82;61.52;100932.06;5015297;28;65119;-33
2022/04/05 10:27:08;;;;;;;5.07;4.57;;;;;;;31.96;61.52;100960.75;5015456;28;69411;-33
2022/04/05 10:29:40;;;;;;;4.78;4.38;;;;;;;31.96;61.60;100947.19;5008677;28;65355;-33
2022/04/05 10:32:54;;;;;;;6.85;5.00;;;;;;;31.44;63.43;100897.84;5001614;28;70256;-33
2022/04/05 10:35:26;;;;;;;5.97;5.30;;;;;;;31.91;62.58;100962.44;5017261;28;66035;-34
2022/04/05 10:38:19;;;;;;;;;;;;;;;31.54;64.62;100959.69;5008995;28;70202;-33
2022/04/05 10:41:33;;;;;;;7.53;6.40;;;;;;;31.68;64.44;100968.50;5006383;28;66225;-34
2022/04/05 10:44:23;;;;;;;7.15;6.50;;;;;;;31.80;64.42;100966.72;4915854;28;69921;-34
2022/04/05 10:47:01;;;;;;;8.32;6.72;;;;;;;31.85;64.36;100966.88;4902748;28;66371;-38
2022/04/05 10:49:54;;;;;;;7.55;6.85;;;;;;;31.85;63.62;100972.31;4987497;28;69342;-35
2022/04/05 10:52:31;;;;;;;8.13;7.32;;;;;;;31.78;64.62;100985.94;5017463;28;65454;-34
2022/04/05 10:55:11;;;;;;;7.90;7.10;;;;;;;31.73;64.97;100976.81;5013725;28;69283;-34
2022/04/05 10:57:41;;;;;;;9.68;8.23;;;;;;;31.78;64.02;100980.50;4995414;28;66301;-34
2022/04/05 11:00:21;;;;;;;10.38;9.43;;;;;;;31.76;64.41;100979.06;4997658;28;69342;-35
2022/04/05 11:03:01;;;;;;;12.10;11.00;;;;;;;31.76;65.11;100982.63;4999463;28;65872;-33
2022/04/05 11:05:37;;;;;;;13.10;11.88;;;;;;;31.77;65.22;100975.31;5017845;28;70339;-34
2022/04/05 11:08:16;;;;;;;11.65;10.35;;;;;;;31.68;65.71;100980.22;5013929;28;66210;-33
2022/04/05 11:10:51;;;;;;;12.00;10.70;;;;;;;31.58;65.95;100972.56;5042851;28;69945;-33
2022/04/05 11:13:35;;;;;;;10.80;9.80;;;;;;;31.57;66.99;100989.91;5015961;28;65850;-36
2022/04/05 11:16:28;;;;;;;15.88;11.45;;;;;;;31.63;65.01;100992.78;5018634;28;70448;-34
2022/04/05 11:18:58;;;;;;;17.70;12.45;;;;;;;31.57;65.27;100992.59;5017970;28;65925;-33
2022/04/05 11:21:29;;;;;;;13.77;12.48;;;;;;;31.47;65.34;100980.59;5020413;28;70242;-34
2022/04/05 11:24:00;;;;;;;14.43;11.55;;;;;;;31.53;65.12;100999.50;5015477;28;66272;-33
2022/04/05 11:26:39;;;;;;;12.80;11.32;;;;;;;31.46;65.81;100985.19;4997804;28;69966;-33
2022/04/05 11:29:21;;;;;;;13.40;11.93;;;;;;;31.07;66.71;100941.09;5019558;28;65953;-34
2022/04/05 11:32:08;;;;;;;15.45;12.10;;;;;;;31.31;67.29;100984.66;5003572;28;69876;-34
2022/04/05 11:34:46;;;;;;;15.02;12.90;;;;;;;31.48;66.19;101002.09;4982807;28;65010;-33
2022/04/05 11:37:34;;;;;;;12.55;11.32;;;;;;;30.93;66.88;100934.09;5018531;28;70051;-35
2022/04/05 11:40:05;;;;;;;10.82;9.85;;;;;;;31.46;66.01;101009.59;4994744;28;65940;-35
2022/04/05 11:43:16;;;;;;;11.18;9.90;;;;;;;31.44;65.91;100995.44;4958330;28;70392;-34
2022/04/05 11:45:49;;;;;;;10.98;9.85;;;;;;;31.48;65.67;100996.66;4943696;28;65197;-35
2022/04/05 11:48:22;;;;;;;10.93;9.77;;;;;;;31.57;66.27;101019.72;4957940;28;68927;-34
2022/04/05 11:50:59;;;;;;;10.68;9.65;;;;;;;31.63;65.97;101019.91;4932826;28;66002;-34
2022/04/05 11:53:32;;;;;;;11.40;10.35;;;;;;;31.60;66.52;101024.69;4960815;28;70151;-36